sensor_id;sensor_type;location;lat;lon;timestamp;temperature;humidity
22418;DHT22;11376;50.932;4.442;2023-03-01T00:01:14;1.10;99.90
22418;DHT22;11376;50.932;4.442;2023-03-01T00:03:41;1.30;99.90
22418;DHT22;11376;50.932;4.442;2023-03-01T00:06:06;1.20;99.90
22418;DHT22;11376;50.932;4.442;2023-03-01T00:08:33;1.10;99.90
22418;DHT22;11376;50.932;4.442;2023-03-01T00:11:12;1.10;99.90
22418;DHT22;11376;50.932;4.442;2023-03-01T00:13:38;1.00;99.90
22418;DHT22;11376;50.932;4.442;2023-03-01T00:16:09;0.90;99.90
22418;DHT22;11376;50.932;4.442;2023-03-01T00:18:35;0.90;99.90
22418;DHT22;11376;50.932;4.442;2023-03-01T00:21:00;0.90;99.90
22418;DHT22;11376;50.932;4.442;2023-03-01T00:23:26;0.80;99.90
22418;DHT22;11376;50.932;4.442;2023-03-01T00:25:52;0.70;99.90
22418;DHT22;11376;50.932;4.442;2023-03-01T00:28:19;0.60;99.90
22418;DHT22;11376;50.932;4.442;2023-03-01T00:30:45;0.60;99.90
22418;DHT22;11376;50.932;4.442;2023-03-01T00:33:11;0.60;99.90
22418;DHT22;11376;50.932;4.442;2023-03-01T00:35:37;0.60;99.90
22418;DHT22;11376;50.932;4.442;2023-03-01T00:38:02;0.70;99.90
22418;DHT22;11376;50.932;4.442;2023-03-01T00:40:31;0.70;99.90
22418;DHT22;11376;50.932;4.442;2023-03-01T00:42:57;0.60;99.90
22418;DHT22;11376;50.932;4.442;2023-03-01T00:45:23;0.50;99.90
22418;DHT22;11376;50.932;4.442;2023-03-01T00:47:50;0.60;99.90
22418;DHT22;11376;50.932;4.442;2023-03-01T00:50:16;0.60;99.90
22418;DHT22;11376;50.932;4.442;2023-03-01T00:52:42;0.70;99.90
22418;DHT22;11376;50.932;4.442;2023-03-01T00:55:08;0.70;99.90
22418;DHT22;11376;50.932;4.442;2023-03-01T00:57:33;0.60;99.90
22418;DHT22;11376;50.932;4.442;2023-03-01T00:59:59;0.60;99.90
22418;DHT22;11376;50.932;4.442;2023-03-01T01:02:25;0.70;99.90
22418;DHT22;11376;50.932;4.442;2023-03-01T01:04:51;0.60;99.90
22418;DHT22;11376;50.932;4.442;2023-03-01T01:07:17;0.60;99.90
22418;DHT22;11376;50.932;4.442;2023-03-01T01:09:42;0.60;99.90
22418;DHT22;11376;50.932;4.442;2023-03-01T01:12:08;0.60;99.90
22418;DHT22;11376;50.932;4.442;2023-03-01T01:14:34;0.60;99.90
22418;DHT22;11376;50.932;4.442;2023-03-01T01:17:00;0.50;99.90
22418;DHT22;11376;50.932;4.442;2023-03-01T01:19:26;0.50;99.90
22418;DHT22;11376;50.932;4.442;2023-03-01T01:21:52;0.50;99.90
22418;DHT22;11376;50.932;4.442;2023-03-01T01:24:18;0.40;99.90
22418;DHT22;11376;50.932;4.442;2023-03-01T01:26:44;0.50;99.90
22418;DHT22;11376;50.932;4.442;2023-03-01T01:29:10;0.60;99.90
22418;DHT22;11376;50.932;4.442;2023-03-01T01:31:37;0.50;99.90
22418;DHT22;11376;50.932;4.442;2023-03-01T01:34:05;0.40;99.90
22418;DHT22;11376;50.932;4.442;2023-03-01T01:36:31;0.40;99.90
22418;DHT22;11376;50.932;4.442;2023-03-01T01:38:57;0.40;99.90
22418;DHT22;11376;50.932;4.442;2023-03-01T01:41:24;0.40;99.90
22418;DHT22;11376;50.932;4.442;2023-03-01T01:44:14;0.50;99.90
22418;DHT22;11376;50.932;4.442;2023-03-01T01:47:00;0.50;99.90
22418;DHT22;11376;50.932;4.442;2023-03-01T01:49:40;0.50;99.90
22418;DHT22;11376;50.932;4.442;2023-03-01T01:52:17;0.40;99.90
22418;DHT22;11376;50.932;4.442;2023-03-01T01:57:56;0.40;99.90
22418;DHT22;11376;50.932;4.442;2023-03-01T02:00:26;0.30;99.90
22418;DHT22;11376;50.932;4.442;2023-03-01T02:02:59;0.30;99.90
22418;DHT22;11376;50.932;4.442;2023-03-01T02:08:11;0.30;99.90
22418;DHT22;11376;50.932;4.442;2023-03-01T02:10:38;0.30;99.90
22418;DHT22;11376;50.932;4.442;2023-03-01T02:13:04;0.20;99.90
22418;DHT22;11376;50.932;4.442;2023-03-01T02:15:35;0.20;99.90
22418;DHT22;11376;50.932;4.442;2023-03-01T02:18:02;0.10;99.90
22418;DHT22;11376;50.932;4.442;2023-03-01T02:23:31;0.10;99.90
22418;DHT22;11376;50.932;4.442;2023-03-01T02:26:11;0.00;99.90
22418;DHT22;11376;50.932;4.442;2023-03-01T02:28:42;0.00;99.90
22418;DHT22;11376;50.932;4.442;2023-03-01T02:31:10;-0.10;99.90
22418;DHT22;11376;50.932;4.442;2023-03-01T02:33:55;-0.10;99.90
22418;DHT22;11376;50.932;4.442;2023-03-01T02:36:31;0.00;99.90
22418;DHT22;11376;50.932;4.442;2023-03-01T02:39:02;-0.10;99.90
22418;DHT22;11376;50.932;4.442;2023-03-01T02:41:31;0.00;99.90
22418;DHT22;11376;50.932;4.442;2023-03-01T02:43:57;-0.10;99.90
22418;DHT22;11376;50.932;4.442;2023-03-01T02:46:25;-0.10;99.90
22418;DHT22;11376;50.932;4.442;2023-03-01T02:48:56;-0.10;99.90
22418;DHT22;11376;50.932;4.442;2023-03-01T02:54:23;-0.20;99.90
22418;DHT22;11376;50.932;4.442;2023-03-01T02:56:51;-0.20;99.90
22418;DHT22;11376;50.932;4.442;2023-03-01T02:59:20;-0.20;99.90
22418;DHT22;11376;50.932;4.442;2023-03-01T03:01:46;-0.20;99.90
22418;DHT22;11376;50.932;4.442;2023-03-01T03:04:14;-0.10;99.90
22418;DHT22;11376;50.932;4.442;2023-03-01T03:06:45;-0.10;99.90
22418;DHT22;11376;50.932;4.442;2023-03-01T03:09:12;-0.20;99.90
22418;DHT22;11376;50.932;4.442;2023-03-01T03:11:38;-0.20;99.90
22418;DHT22;11376;50.932;4.442;2023-03-01T03:14:07;-0.20;99.90
22418;DHT22;11376;50.932;4.442;2023-03-01T03:16:41;-0.20;99.90
22418;DHT22;11376;50.932;4.442;2023-03-01T03:19:07;-0.30;99.90
22418;DHT22;11376;50.932;4.442;2023-03-01T03:21:33;-0.30;99.90
22418;DHT22;11376;50.932;4.442;2023-03-01T03:23:58;-0.30;99.90
22418;DHT22;11376;50.932;4.442;2023-03-01T03:26:24;-0.30;99.90
22418;DHT22;11376;50.932;4.442;2023-03-01T03:28:50;-0.30;99.90
22418;DHT22;11376;50.932;4.442;2023-03-01T03:31:16;-0.30;99.90
22418;DHT22;11376;50.932;4.442;2023-03-01T03:33:41;-0.40;99.90
22418;DHT22;11376;50.932;4.442;2023-03-01T03:36:07;-0.40;99.90
22418;DHT22;11376;50.932;4.442;2023-03-01T03:38:38;-0.40;99.90
22418;DHT22;11376;50.932;4.442;2023-03-01T03:41:06;-0.40;99.90
22418;DHT22;11376;50.932;4.442;2023-03-01T03:43:35;-0.40;99.90
22418;DHT22;11376;50.932;4.442;2023-03-01T03:46:01;-0.40;99.90
22418;DHT22;11376;50.932;4.442;2023-03-01T03:48:33;-0.40;99.90
22418;DHT22;11376;50.932;4.442;2023-03-01T03:50:59;-0.40;99.90
22418;DHT22;11376;50.932;4.442;2023-03-01T03:53:27;-0.40;99.90
22418;DHT22;11376;50.932;4.442;2023-03-01T03:55:53;-0.40;99.90
22418;DHT22;11376;50.932;4.442;2023-03-01T03:58:21;-0.40;99.90
22418;DHT22;11376;50.932;4.442;2023-03-01T04:00:49;-0.40;99.90
22418;DHT22;11376;50.932;4.442;2023-03-01T04:03:16;-0.40;99.90
22418;DHT22;11376;50.932;4.442;2023-03-01T04:05:44;-0.40;99.90
22418;DHT22;11376;50.932;4.442;2023-03-01T04:08:09;-0.50;99.90
22418;DHT22;11376;50.932;4.442;2023-03-01T04:10:42;-0.50;99.90
22418;DHT22;11376;50.932;4.442;2023-03-01T04:13:14;-0.60;99.90
22418;DHT22;11376;50.932;4.442;2023-03-01T04:15:41;-0.60;99.90
22418;DHT22;11376;50.932;4.442;2023-03-01T04:18:14;-0.60;99.90
22418;DHT22;11376;50.932;4.442;2023-03-01T04:20:41;-0.60;99.90
22418;DHT22;11376;50.932;4.442;2023-03-01T04:23:09;-0.60;99.90
22418;DHT22;11376;50.932;4.442;2023-03-01T04:25:55;-0.60;99.90
22418;DHT22;11376;50.932;4.442;2023-03-01T04:28:27;-0.70;99.90
22418;DHT22;11376;50.932;4.442;2023-03-01T04:30:54;-0.70;99.90
22418;DHT22;11376;50.932;4.442;2023-03-01T04:33:20;-0.70;99.90
22418;DHT22;11376;50.932;4.442;2023-03-01T04:35:45;-0.80;99.90
22418;DHT22;11376;50.932;4.442;2023-03-01T04:38:11;-0.70;99.90
22418;DHT22;11376;50.932;4.442;2023-03-01T04:40:37;-0.90;99.90
22418;DHT22;11376;50.932;4.442;2023-03-01T04:43:03;-0.90;99.90
22418;DHT22;11376;50.932;4.442;2023-03-01T04:45:31;-1.00;99.90
22418;DHT22;11376;50.932;4.442;2023-03-01T04:47:56;-1.00;99.90
22418;DHT22;11376;50.932;4.442;2023-03-01T04:50:23;-0.90;99.90
22418;DHT22;11376;50.932;4.442;2023-03-01T04:52:51;-0.80;99.90
22418;DHT22;11376;50.932;4.442;2023-03-01T04:55:16;-0.90;99.90
22418;DHT22;11376;50.932;4.442;2023-03-01T04:57:42;-1.00;99.90
22418;DHT22;11376;50.932;4.442;2023-03-01T05:00:10;-1.00;99.90
22418;DHT22;11376;50.932;4.442;2023-03-01T05:05:28;-1.00;99.90
22418;DHT22;11376;50.932;4.442;2023-03-01T05:07:59;-0.90;99.90
22418;DHT22;11376;50.932;4.442;2023-03-01T05:10:27;-1.00;99.90
22418;DHT22;11376;50.932;4.442;2023-03-01T05:12:57;-1.00;99.90
22418;DHT22;11376;50.932;4.442;2023-03-01T05:15:24;-1.10;99.90
22418;DHT22;11376;50.932;4.442;2023-03-01T05:17:51;-1.10;99.90
22418;DHT22;11376;50.932;4.442;2023-03-01T05:20:17;-1.10;99.90
22418;DHT22;11376;50.932;4.442;2023-03-01T05:22:43;-1.10;99.90
22418;DHT22;11376;50.932;4.442;2023-03-01T05:25:09;-1.10;99.90
22418;DHT22;11376;50.932;4.442;2023-03-01T05:27:35;-1.10;99.90
22418;DHT22;11376;50.932;4.442;2023-03-01T05:30:01;-1.10;99.90
22418;DHT22;11376;50.932;4.442;2023-03-01T05:32:41;-1.10;99.90
22418;DHT22;11376;50.932;4.442;2023-03-01T05:35:09;-1.10;99.90
22418;DHT22;11376;50.932;4.442;2023-03-01T05:37:41;-1.10;99.90
22418;DHT22;11376;50.932;4.442;2023-03-01T05:40:12;-1.20;99.90
22418;DHT22;11376;50.932;4.442;2023-03-01T05:42:44;-1.20;99.90
22418;DHT22;11376;50.932;4.442;2023-03-01T05:45:11;-1.20;99.90
22418;DHT22;11376;50.932;4.442;2023-03-01T05:47:41;-1.30;99.90
22418;DHT22;11376;50.932;4.442;2023-03-01T05:50:11;-1.30;99.90
22418;DHT22;11376;50.932;4.442;2023-03-01T05:52:37;-1.10;99.90
22418;DHT22;11376;50.932;4.442;2023-03-01T05:55:03;-1.20;99.90
22418;DHT22;11376;50.932;4.442;2023-03-01T05:57:29;-1.20;99.90
22418;DHT22;11376;50.932;4.442;2023-03-01T05:59:54;-1.30;99.90
22418;DHT22;11376;50.932;4.442;2023-03-01T06:02:20;-1.30;99.90
22418;DHT22;11376;50.932;4.442;2023-03-01T06:04:45;-1.40;99.90
22418;DHT22;11376;50.932;4.442;2023-03-01T06:07:11;-1.40;99.90
22418;DHT22;11376;50.932;4.442;2023-03-01T06:09:36;-1.50;99.90
22418;DHT22;11376;50.932;4.442;2023-03-01T06:12:02;-1.40;99.90
22418;DHT22;11376;50.932;4.442;2023-03-01T06:14:28;-1.40;99.90
22418;DHT22;11376;50.932;4.442;2023-03-01T06:16:53;-1.40;99.90
22418;DHT22;11376;50.932;4.442;2023-03-01T06:19:19;-1.40;99.90
22418;DHT22;11376;50.932;4.442;2023-03-01T06:21:44;-1.50;99.90
22418;DHT22;11376;50.932;4.442;2023-03-01T06:24:10;-1.50;99.90
22418;DHT22;11376;50.932;4.442;2023-03-01T06:26:36;-1.50;99.90
22418;DHT22;11376;50.932;4.442;2023-03-01T06:29:01;-1.50;99.90
22418;DHT22;11376;50.932;4.442;2023-03-01T06:31:27;-1.50;99.90
22418;DHT22;11376;50.932;4.442;2023-03-01T06:33:52;-1.50;99.90
22418;DHT22;11376;50.932;4.442;2023-03-01T06:36:18;-1.50;99.90
22418;DHT22;11376;50.932;4.442;2023-03-01T06:38:46;-1.50;99.90
22418;DHT22;11376;50.932;4.442;2023-03-01T06:41:11;-1.40;99.90
22418;DHT22;11376;50.932;4.442;2023-03-01T06:43:37;-1.20;99.90
22418;DHT22;11376;50.932;4.442;2023-03-01T06:46:06;-1.20;99.90
22418;DHT22;11376;50.932;4.442;2023-03-01T06:48:33;-1.20;99.90
22418;DHT22;11376;50.932;4.442;2023-03-01T06:50:59;-1.20;99.90
22418;DHT22;11376;50.932;4.442;2023-03-01T06:53:29;-1.30;99.90
22418;DHT22;11376;50.932;4.442;2023-03-01T06:55:56;-1.40;99.90
22418;DHT22;11376;50.932;4.442;2023-03-01T06:58:21;-1.40;99.90
22418;DHT22;11376;50.932;4.442;2023-03-01T07:00:47;-1.40;99.90
22418;DHT22;11376;50.932;4.442;2023-03-01T07:03:12;-1.30;99.90
22418;DHT22;11376;50.932;4.442;2023-03-01T07:05:38;-1.20;99.90
22418;DHT22;11376;50.932;4.442;2023-03-01T07:08:04;-1.20;99.90
22418;DHT22;11376;50.932;4.442;2023-03-01T07:10:29;-1.20;99.90
22418;DHT22;11376;50.932;4.442;2023-03-01T07:12:56;-0.90;99.90
22418;DHT22;11376;50.932;4.442;2023-03-01T07:15:22;-0.60;99.90
22418;DHT22;11376;50.932;4.442;2023-03-01T07:17:48;-0.60;99.90
22418;DHT22;11376;50.932;4.442;2023-03-01T07:20:17;-0.70;99.90
22418;DHT22;11376;50.932;4.442;2023-03-01T07:22:43;-0.80;99.90
22418;DHT22;11376;50.932;4.442;2023-03-01T07:25:09;-0.80;99.90
22418;DHT22;11376;50.932;4.442;2023-03-01T07:27:35;-0.70;99.90
22418;DHT22;11376;50.932;4.442;2023-03-01T07:30:00;-0.60;99.90
22418;DHT22;11376;50.932;4.442;2023-03-01T07:32:26;-0.50;99.90
22418;DHT22;11376;50.932;4.442;2023-03-01T07:34:53;-0.40;99.90
22418;DHT22;11376;50.932;4.442;2023-03-01T07:37:18;-0.30;99.90
22418;DHT22;11376;50.932;4.442;2023-03-01T07:39:47;-0.30;99.90
22418;DHT22;11376;50.932;4.442;2023-03-01T07:42:13;-0.20;99.90
22418;DHT22;11376;50.932;4.442;2023-03-01T07:44:39;-0.10;99.90
22418;DHT22;11376;50.932;4.442;2023-03-01T07:47:04;0.00;99.90
22418;DHT22;11376;50.932;4.442;2023-03-01T07:49:30;0.00;99.90
22418;DHT22;11376;50.932;4.442;2023-03-01T07:51:58;0.10;99.90
22418;DHT22;11376;50.932;4.442;2023-03-01T07:54:52;0.20;99.90
22418;DHT22;11376;50.932;4.442;2023-03-01T07:57:17;0.20;99.90
22418;DHT22;11376;50.932;4.442;2023-03-01T07:59:43;0.30;99.90
22418;DHT22;11376;50.932;4.442;2023-03-01T08:02:10;0.40;99.90
22418;DHT22;11376;50.932;4.442;2023-03-01T08:04:36;0.50;99.90
22418;DHT22;11376;50.932;4.442;2023-03-01T08:07:04;0.50;99.90
22418;DHT22;11376;50.932;4.442;2023-03-01T08:09:30;0.60;99.90
22418;DHT22;11376;50.932;4.442;2023-03-01T08:11:57;0.60;99.90
22418;DHT22;11376;50.932;4.442;2023-03-01T08:14:25;0.80;99.90
22418;DHT22;11376;50.932;4.442;2023-03-01T08:16:50;0.90;99.90
22418;DHT22;11376;50.932;4.442;2023-03-01T08:19:16;0.90;99.90
22418;DHT22;11376;50.932;4.442;2023-03-01T08:21:41;0.90;99.90
22418;DHT22;11376;50.932;4.442;2023-03-01T08:24:07;1.00;99.90
22418;DHT22;11376;50.932;4.442;2023-03-01T08:26:35;1.00;99.90
22418;DHT22;11376;50.932;4.442;2023-03-01T08:29:01;1.30;99.90
22418;DHT22;11376;50.932;4.442;2023-03-01T08:31:32;1.40;99.90
22418;DHT22;11376;50.932;4.442;2023-03-01T08:34:00;1.60;99.90
22418;DHT22;11376;50.932;4.442;2023-03-01T08:36:33;1.70;99.90
22418;DHT22;11376;50.932;4.442;2023-03-01T08:39:00;1.70;99.90
22418;DHT22;11376;50.932;4.442;2023-03-01T08:41:25;1.90;99.90
22418;DHT22;11376;50.932;4.442;2023-03-01T08:43:51;1.90;99.90
22418;DHT22;11376;50.932;4.442;2023-03-01T08:46:18;1.90;99.90
22418;DHT22;11376;50.932;4.442;2023-03-01T08:48:44;2.00;99.90
22418;DHT22;11376;50.932;4.442;2023-03-01T08:51:10;2.10;99.90
22418;DHT22;11376;50.932;4.442;2023-03-01T08:53:37;2.10;99.90
22418;DHT22;11376;50.932;4.442;2023-03-01T08:56:03;2.20;99.90
22418;DHT22;11376;50.932;4.442;2023-03-01T08:58:29;2.30;99.90
22418;DHT22;11376;50.932;4.442;2023-03-01T09:00:55;2.50;99.90
22418;DHT22;11376;50.932;4.442;2023-03-01T09:03:22;2.60;99.90
22418;DHT22;11376;50.932;4.442;2023-03-01T09:05:48;2.70;99.90
22418;DHT22;11376;50.932;4.442;2023-03-01T09:08:16;2.80;99.90
22418;DHT22;11376;50.932;4.442;2023-03-01T09:10:41;2.80;99.90
22418;DHT22;11376;50.932;4.442;2023-03-01T09:13:07;2.90;99.90
22418;DHT22;11376;50.932;4.442;2023-03-01T09:15:33;3.00;99.90
22418;DHT22;11376;50.932;4.442;2023-03-01T09:17:59;3.20;99.90
22418;DHT22;11376;50.932;4.442;2023-03-01T09:20:24;3.30;99.90
22418;DHT22;11376;50.932;4.442;2023-03-01T09:22:50;3.30;99.90
22418;DHT22;11376;50.932;4.442;2023-03-01T09:25:16;3.40;99.90
22418;DHT22;11376;50.932;4.442;2023-03-01T09:27:41;3.50;99.90
22418;DHT22;11376;50.932;4.442;2023-03-01T09:30:08;3.60;99.90
22418;DHT22;11376;50.932;4.442;2023-03-01T09:32:33;3.70;99.90
22418;DHT22;11376;50.932;4.442;2023-03-01T09:34:59;3.70;99.90
22418;DHT22;11376;50.932;4.442;2023-03-01T09:37:33;3.80;99.90
22418;DHT22;11376;50.932;4.442;2023-03-01T09:39:59;3.80;99.90
22418;DHT22;11376;50.932;4.442;2023-03-01T09:42:25;3.90;99.90
22418;DHT22;11376;50.932;4.442;2023-03-01T09:44:56;3.90;99.90
22418;DHT22;11376;50.932;4.442;2023-03-01T09:47:29;4.10;99.90
22418;DHT22;11376;50.932;4.442;2023-03-01T09:56:05;4.40;99.90
22418;DHT22;11376;50.932;4.442;2023-03-01T10:02:04;4.60;99.90
22418;DHT22;11376;50.932;4.442;2023-03-01T10:04:49;4.70;99.90
22418;DHT22;11376;50.932;4.442;2023-03-01T10:07:32;4.80;99.90
22418;DHT22;11376;50.932;4.442;2023-03-01T10:10:05;4.90;99.90
22418;DHT22;11376;50.932;4.442;2023-03-01T10:12:35;5.40;99.90
22418;DHT22;11376;50.932;4.442;2023-03-01T10:20:33;5.80;99.90
22418;DHT22;11376;50.932;4.442;2023-03-01T10:23:02;6.30;99.90
22418;DHT22;11376;50.932;4.442;2023-03-01T10:31:13;7.00;99.90
22418;DHT22;11376;50.932;4.442;2023-03-01T10:33:41;7.50;99.90
22418;DHT22;11376;50.932;4.442;2023-03-01T10:36:07;8.00;99.90
22418;DHT22;11376;50.932;4.442;2023-03-01T10:41:17;9.40;99.90
22418;DHT22;11376;50.932;4.442;2023-03-01T10:43:49;10.50;99.90
22418;DHT22;11376;50.932;4.442;2023-03-01T10:49:15;12.50;99.90
22418;DHT22;11376;50.932;4.442;2023-03-01T10:51:43;13.30;96.10
22418;DHT22;11376;50.932;4.442;2023-03-01T10:56:50;14.20;92.40
22418;DHT22;11376;50.932;4.442;2023-03-01T10:59:24;15.10;89.00
22418;DHT22;11376;50.932;4.442;2023-03-01T11:02:20;16.40;82.50
22418;DHT22;11376;50.932;4.442;2023-03-01T11:07:26;18.90;63.00
22418;DHT22;11376;50.932;4.442;2023-03-01T11:09:52;18.90;58.90
22418;DHT22;11376;50.932;4.442;2023-03-01T11:12:18;18.20;58.30
22418;DHT22;11376;50.932;4.442;2023-03-01T11:14:52;18.40;57.80
22418;DHT22;11376;50.932;4.442;2023-03-01T11:17:27;18.30;57.50
22418;DHT22;11376;50.932;4.442;2023-03-01T11:23:04;18.30;56.30
22418;DHT22;11376;50.932;4.442;2023-03-01T11:25:35;19.20;56.40
22418;DHT22;11376;50.932;4.442;2023-03-01T11:28:04;19.90;52.70
22418;DHT22;11376;50.932;4.442;2023-03-01T11:30:49;20.90;50.10
22418;DHT22;11376;50.932;4.442;2023-03-01T11:34:06;20.50;48.50
22418;DHT22;11376;50.932;4.442;2023-03-01T11:38:50;20.60;48.20
22418;DHT22;11376;50.932;4.442;2023-03-01T11:41:20;20.10;47.70
22418;DHT22;11376;50.932;4.442;2023-03-01T11:57:32;21.70;42.90
22418;DHT22;11376;50.932;4.442;2023-03-01T12:05:17;21.10;42.80
22418;DHT22;11376;50.932;4.442;2023-03-01T12:10:48;20.50;42.70
22418;DHT22;11376;50.932;4.442;2023-03-01T12:16:40;19.90;43.00
22418;DHT22;11376;50.932;4.442;2023-03-01T12:22:09;20.00;44.40
22418;DHT22;11376;50.932;4.442;2023-03-01T12:32:42;23.60;38.60
22418;DHT22;11376;50.932;4.442;2023-03-01T12:35:31;24.50;36.50
22418;DHT22;11376;50.932;4.442;2023-03-01T12:46:56;23.40;35.80
22418;DHT22;11376;50.932;4.442;2023-03-01T12:49:29;24.10;34.70
22418;DHT22;11376;50.932;4.442;2023-03-01T12:52:22;24.70;34.10
22418;DHT22;11376;50.932;4.442;2023-03-01T12:54:46;24.40;34.60
22418;DHT22;11376;50.932;4.442;2023-03-01T12:57:25;24.10;35.20
22418;DHT22;11376;50.932;4.442;2023-03-01T13:03:12;24.10;34.30
22418;DHT22;11376;50.932;4.442;2023-03-01T13:06:01;23.50;34.60
22418;DHT22;11376;50.932;4.442;2023-03-01T13:08:58;23.60;34.70
22418;DHT22;11376;50.932;4.442;2023-03-01T13:11:27;22.70;35.20
22418;DHT22;11376;50.932;4.442;2023-03-01T13:16:54;21.60;36.70
22418;DHT22;11376;50.932;4.442;2023-03-01T13:19:26;21.50;36.70
22418;DHT22;11376;50.932;4.442;2023-03-01T13:21:58;21.40;36.90
22418;DHT22;11376;50.932;4.442;2023-03-01T13:24:38;20.30;37.50
22418;DHT22;11376;50.932;4.442;2023-03-01T13:29:48;20.40;37.80
22418;DHT22;11376;50.932;4.442;2023-03-01T13:32:28;20.40;38.90
22418;DHT22;11376;50.932;4.442;2023-03-01T13:35:02;21.00;38.20
22418;DHT22;11376;50.932;4.442;2023-03-01T13:37:37;21.40;36.70
22418;DHT22;11376;50.932;4.442;2023-03-01T13:42:53;23.10;35.20
22418;DHT22;11376;50.932;4.442;2023-03-01T13:45:32;23.90;34.50
22418;DHT22;11376;50.932;4.442;2023-03-01T13:48:02;23.10;34.30
22418;DHT22;11376;50.932;4.442;2023-03-01T13:50:36;22.60;34.80
22418;DHT22;11376;50.932;4.442;2023-03-01T13:53:06;22.40;35.30
22418;DHT22;11376;50.932;4.442;2023-03-01T13:55:41;21.90;36.00
22418;DHT22;11376;50.932;4.442;2023-03-01T14:00:55;22.40;35.40
22418;DHT22;11376;50.932;4.442;2023-03-01T14:03:21;22.20;35.90
22418;DHT22;11376;50.932;4.442;2023-03-01T14:08:32;20.30;37.80
22418;DHT22;11376;50.932;4.442;2023-03-01T14:13:47;19.60;39.50
22418;DHT22;11376;50.932;4.442;2023-03-01T14:19:26;19.40;39.90
22418;DHT22;11376;50.932;4.442;2023-03-01T14:22:22;19.00;40.70
22418;DHT22;11376;50.932;4.442;2023-03-01T14:24:57;19.30;40.40
22418;DHT22;11376;50.932;4.442;2023-03-01T14:27:38;19.50;40.00
22418;DHT22;11376;50.932;4.442;2023-03-01T14:30:15;19.80;39.60
22418;DHT22;11376;50.932;4.442;2023-03-01T14:32:58;19.50;40.00
22418;DHT22;11376;50.932;4.442;2023-03-01T14:35:30;20.00;40.20
22418;DHT22;11376;50.932;4.442;2023-03-01T14:37:56;20.40;39.20
22418;DHT22;11376;50.932;4.442;2023-03-01T14:40:35;20.60;38.50
22418;DHT22;11376;50.932;4.442;2023-03-01T14:43:09;20.30;38.20
22418;DHT22;11376;50.932;4.442;2023-03-01T14:45:35;19.80;39.70
22418;DHT22;11376;50.932;4.442;2023-03-01T14:48:03;19.50;39.30
22418;DHT22;11376;50.932;4.442;2023-03-01T14:50:32;19.10;40.00
22418;DHT22;11376;50.932;4.442;2023-03-01T14:53:04;18.70;40.50
22418;DHT22;11376;50.932;4.442;2023-03-01T14:55:42;18.60;40.70
22418;DHT22;11376;50.932;4.442;2023-03-01T14:58:13;18.70;40.70
22418;DHT22;11376;50.932;4.442;2023-03-01T15:00:46;18.30;41.90
22418;DHT22;11376;50.932;4.442;2023-03-01T15:03:20;17.90;42.70
22418;DHT22;11376;50.932;4.442;2023-03-01T15:05:49;18.10;41.90
22418;DHT22;11376;50.932;4.442;2023-03-01T15:08:19;18.00;43.30
22418;DHT22;11376;50.932;4.442;2023-03-01T15:10:57;18.50;42.00
22418;DHT22;11376;50.932;4.442;2023-03-01T15:13:25;18.70;42.00
22418;DHT22;11376;50.932;4.442;2023-03-01T15:15:59;18.90;41.00
22418;DHT22;11376;50.932;4.442;2023-03-01T15:18:27;18.40;41.50
22418;DHT22;11376;50.932;4.442;2023-03-01T15:20:54;18.10;42.30
22418;DHT22;11376;50.932;4.442;2023-03-01T15:23:24;17.80;42.30
22418;DHT22;11376;50.932;4.442;2023-03-01T15:25:51;17.10;43.40
22418;DHT22;11376;50.932;4.442;2023-03-01T15:28:25;16.70;44.20
22418;DHT22;11376;50.932;4.442;2023-03-01T15:30:59;16.10;44.90
22418;DHT22;11376;50.932;4.442;2023-03-01T15:35:54;15.10;47.30
22418;DHT22;11376;50.932;4.442;2023-03-01T15:40:58;13.70;49.40
22418;DHT22;11376;50.932;4.442;2023-03-01T15:43:44;13.00;50.30
22418;DHT22;11376;50.932;4.442;2023-03-01T15:46:32;12.40;52.10
22418;DHT22;11376;50.932;4.442;2023-03-01T15:49:26;12.10;53.20
22418;DHT22;11376;50.932;4.442;2023-03-01T15:51:53;11.80;55.00
22418;DHT22;11376;50.932;4.442;2023-03-01T15:54:22;11.40;55.40
22418;DHT22;11376;50.932;4.442;2023-03-01T15:56:48;11.00;56.40
22418;DHT22;11376;50.932;4.442;2023-03-01T15:59:14;10.50;57.50
22418;DHT22;11376;50.932;4.442;2023-03-01T16:01:44;10.00;58.90
22418;DHT22;11376;50.932;4.442;2023-03-01T16:04:10;9.80;61.00
22418;DHT22;11376;50.932;4.442;2023-03-01T16:06:41;9.50;62.20
22418;DHT22;11376;50.932;4.442;2023-03-01T16:09:07;9.40;62.80
22418;DHT22;11376;50.932;4.442;2023-03-01T16:11:34;9.30;64.30
22418;DHT22;11376;50.932;4.442;2023-03-01T16:14:02;9.10;65.20
22418;DHT22;11376;50.932;4.442;2023-03-01T16:16:27;8.90;66.70
22418;DHT22;11376;50.932;4.442;2023-03-01T16:18:53;8.80;68.40
22418;DHT22;11376;50.932;4.442;2023-03-01T16:21:22;8.70;68.90
22418;DHT22;11376;50.932;4.442;2023-03-01T16:23:48;8.50;69.60
22418;DHT22;11376;50.932;4.442;2023-03-01T16:26:15;8.30;70.50
22418;DHT22;11376;50.932;4.442;2023-03-01T16:28:41;8.20;71.30
22418;DHT22;11376;50.932;4.442;2023-03-01T16:31:07;8.00;72.70
22418;DHT22;11376;50.932;4.442;2023-03-01T16:33:33;7.90;73.90
22418;DHT22;11376;50.932;4.442;2023-03-01T16:36:00;7.90;75.80
22418;DHT22;11376;50.932;4.442;2023-03-01T16:38:27;7.90;77.10
22418;DHT22;11376;50.932;4.442;2023-03-01T16:40:53;7.80;77.70
22418;DHT22;11376;50.932;4.442;2023-03-01T16:43:19;7.70;78.70
22418;DHT22;11376;50.932;4.442;2023-03-01T16:45:45;7.60;80.10
22418;DHT22;11376;50.932;4.442;2023-03-01T16:48:12;7.50;80.90
22418;DHT22;11376;50.932;4.442;2023-03-01T16:50:37;7.40;81.70
22418;DHT22;11376;50.932;4.442;2023-03-01T16:53:03;7.30;82.60
22418;DHT22;11376;50.932;4.442;2023-03-01T16:55:29;7.30;83.00
22418;DHT22;11376;50.932;4.442;2023-03-01T16:57:54;7.20;83.40
22418;DHT22;11376;50.932;4.442;2023-03-01T17:00:20;7.00;84.60
22418;DHT22;11376;50.932;4.442;2023-03-01T17:02:46;6.90;85.90
22418;DHT22;11376;50.932;4.442;2023-03-01T17:05:11;6.90;87.00
22418;DHT22;11376;50.932;4.442;2023-03-01T17:07:37;6.90;87.20
22418;DHT22;11376;50.932;4.442;2023-03-01T17:10:05;6.70;88.70
22418;DHT22;11376;50.932;4.442;2023-03-01T17:12:33;6.80;94.40
22418;DHT22;11376;50.932;4.442;2023-03-01T17:14:59;6.90;92.70
22418;DHT22;11376;50.932;4.442;2023-03-01T17:17:25;6.80;92.20
22418;DHT22;11376;50.932;4.442;2023-03-01T17:19:51;6.60;92.60
22418;DHT22;11376;50.932;4.442;2023-03-01T17:22:16;6.60;92.80
22418;DHT22;11376;50.932;4.442;2023-03-01T17:24:43;6.50;93.00
22418;DHT22;11376;50.932;4.442;2023-03-01T17:27:09;6.40;93.60
22418;DHT22;11376;50.932;4.442;2023-03-01T17:29:36;6.30;94.00
22418;DHT22;11376;50.932;4.442;2023-03-01T17:32:03;6.20;94.50
22418;DHT22;11376;50.932;4.442;2023-03-01T17:34:31;6.10;95.20
22418;DHT22;11376;50.932;4.442;2023-03-01T17:36:57;5.90;95.70
22418;DHT22;11376;50.932;4.442;2023-03-01T17:39:22;5.90;96.10
22418;DHT22;11376;50.932;4.442;2023-03-01T17:41:52;5.80;96.30
22418;DHT22;11376;50.932;4.442;2023-03-01T17:44:18;5.70;96.90
22418;DHT22;11376;50.932;4.442;2023-03-01T17:46:44;5.60;97.40
22418;DHT22;11376;50.932;4.442;2023-03-01T17:49:09;5.50;98.00
22418;DHT22;11376;50.932;4.442;2023-03-01T17:51:35;5.50;98.60
22418;DHT22;11376;50.932;4.442;2023-03-01T17:54:01;5.40;98.90